sensor_id;sensor_type;location;lat;lon;timestamp;temperature;humidity
15578;DHT22;17667;45.598;5.214;2023-04-08T00:00:54;5.70;99.90
15578;DHT22;17667;45.598;5.214;2023-04-08T00:03:41;5.70;99.90
15578;DHT22;17667;45.598;5.214;2023-04-08T00:06:29;5.80;99.90
15578;DHT22;17667;45.598;5.214;2023-04-08T00:09:17;5.80;99.90
15578;DHT22;17667;45.598;5.214;2023-04-08T00:12:05;5.90;99.90
15578;DHT22;17667;45.598;5.214;2023-04-08T00:14:52;5.80;99.90
15578;DHT22;17667;45.598;5.214;2023-04-08T00:17:41;5.70;99.90
15578;DHT22;17667;45.598;5.214;2023-04-08T00:20:30;5.60;99.90
15578;DHT22;17667;45.598;5.214;2023-04-08T00:23:18;5.50;99.90
15578;DHT22;17667;45.598;5.214;2023-04-08T00:26:06;5.40;99.90
15578;DHT22;17667;45.598;5.214;2023-04-08T00:28:54;5.40;99.90
15578;DHT22;17667;45.598;5.214;2023-04-08T00:31:42;5.30;99.90
15578;DHT22;17667;45.598;5.214;2023-04-08T00:34:31;5.20;99.90
15578;DHT22;17667;45.598;5.214;2023-04-08T00:37:18;5.10;99.90
15578;DHT22;17667;45.598;5.214;2023-04-08T00:40:07;5.10;99.90
15578;DHT22;17667;45.598;5.214;2023-04-08T00:42:56;5.00;99.90
15578;DHT22;17667;45.598;5.214;2023-04-08T00:45:43;5.00;99.90
15578;DHT22;17667;45.598;5.214;2023-04-08T00:48:31;4.90;99.90
15578;DHT22;17667;45.598;5.214;2023-04-08T00:51:20;4.90;99.90
15578;DHT22;17667;45.598;5.214;2023-04-08T00:54:08;4.90;99.90
15578;DHT22;17667;45.598;5.214;2023-04-08T00:56:56;4.80;99.90
15578;DHT22;17667;45.598;5.214;2023-04-08T00:59:45;4.70;99.90
15578;DHT22;17667;45.598;5.214;2023-04-08T01:02:38;4.70;99.90
15578;DHT22;17667;45.598;5.214;2023-04-08T01:05:35;4.70;99.90
15578;DHT22;17667;45.598;5.214;2023-04-08T01:08:30;4.70;99.90
15578;DHT22;17667;45.598;5.214;2023-04-08T01:11:19;4.60;99.90
15578;DHT22;17667;45.598;5.214;2023-04-08T01:14:08;4.60;99.90
15578;DHT22;17667;45.598;5.214;2023-04-08T01:16:59;4.60;99.90
15578;DHT22;17667;45.598;5.214;2023-04-08T01:19:48;4.50;99.90
15578;DHT22;17667;45.598;5.214;2023-04-08T01:22:45;4.50;99.90
15578;DHT22;17667;45.598;5.214;2023-04-08T01:25:44;4.50;99.90
15578;DHT22;17667;45.598;5.214;2023-04-08T01:28:32;4.40;99.90
15578;DHT22;17667;45.598;5.214;2023-04-08T01:31:23;4.40;99.90
15578;DHT22;17667;45.598;5.214;2023-04-08T01:34:13;4.40;99.90
15578;DHT22;17667;45.598;5.214;2023-04-08T01:37:02;4.40;99.90
15578;DHT22;17667;45.598;5.214;2023-04-08T01:39:51;4.40;99.90
15578;DHT22;17667;45.598;5.214;2023-04-08T01:42:41;4.40;99.90
15578;DHT22;17667;45.598;5.214;2023-04-08T01:45:30;4.30;99.90
15578;DHT22;17667;45.598;5.214;2023-04-08T01:48:18;4.30;99.90
15578;DHT22;17667;45.598;5.214;2023-04-08T01:51:06;4.30;99.90
15578;DHT22;17667;45.598;5.214;2023-04-08T01:53:55;4.20;99.90
15578;DHT22;17667;45.598;5.214;2023-04-08T01:56:43;4.20;99.90
15578;DHT22;17667;45.598;5.214;2023-04-08T01:59:34;4.20;99.90
15578;DHT22;17667;45.598;5.214;2023-04-08T02:02:23;4.20;99.90
15578;DHT22;17667;45.598;5.214;2023-04-08T02:05:13;4.10;99.90
15578;DHT22;17667;45.598;5.214;2023-04-08T02:08:03;4.10;99.90
15578;DHT22;17667;45.598;5.214;2023-04-08T02:10:51;4.10;99.90
15578;DHT22;17667;45.598;5.214;2023-04-08T02:13:38;4.20;99.90
15578;DHT22;17667;45.598;5.214;2023-04-08T02:16:32;4.20;99.90
15578;DHT22;17667;45.598;5.214;2023-04-08T02:19:26;4.20;99.90
15578;DHT22;17667;45.598;5.214;2023-04-08T02:22:21;4.10;99.90
15578;DHT22;17667;45.598;5.214;2023-04-08T02:25:12;4.10;99.90
15578;DHT22;17667;45.598;5.214;2023-04-08T02:28:03;4.00;99.90
15578;DHT22;17667;45.598;5.214;2023-04-08T02:30:53;3.90;99.90
15578;DHT22;17667;45.598;5.214;2023-04-08T02:33:43;3.90;99.90
15578;DHT22;17667;45.598;5.214;2023-04-08T02:36:32;3.90;99.90
15578;DHT22;17667;45.598;5.214;2023-04-08T02:39:29;3.80;99.90
15578;DHT22;17667;45.598;5.214;2023-04-08T02:42:17;3.70;99.90
15578;DHT22;17667;45.598;5.214;2023-04-08T02:45:06;3.70;99.90
15578;DHT22;17667;45.598;5.214;2023-04-08T02:47:54;3.70;99.90
15578;DHT22;17667;45.598;5.214;2023-04-08T02:50:43;3.70;99.90
15578;DHT22;17667;45.598;5.214;2023-04-08T02:53:30;3.70;99.90
15578;DHT22;17667;45.598;5.214;2023-04-08T02:56:18;3.70;99.90
15578;DHT22;17667;45.598;5.214;2023-04-08T02:59:06;3.60;99.90
15578;DHT22;17667;45.598;5.214;2023-04-08T03:01:55;3.60;99.90
15578;DHT22;17667;45.598;5.214;2023-04-08T03:04:42;3.60;99.90
15578;DHT22;17667;45.598;5.214;2023-04-08T03:07:31;3.60;99.90
15578;DHT22;17667;45.598;5.214;2023-04-08T03:10:19;3.60;99.90
15578;DHT22;17667;45.598;5.214;2023-04-08T03:13:07;3.70;99.90
15578;DHT22;17667;45.598;5.214;2023-04-08T03:15:55;3.70;99.90
15578;DHT22;17667;45.598;5.214;2023-04-08T03:18:42;3.60;99.90
15578;DHT22;17667;45.598;5.214;2023-04-08T03:21:30;3.60;99.90
15578;DHT22;17667;45.598;5.214;2023-04-08T03:24:19;3.60;99.90
15578;DHT22;17667;45.598;5.214;2023-04-08T03:27:07;3.60;99.90
15578;DHT22;17667;45.598;5.214;2023-04-08T03:29:54;3.60;99.90
15578;DHT22;17667;45.598;5.214;2023-04-08T03:32:43;3.60;99.90
15578;DHT22;17667;45.598;5.214;2023-04-08T03:35:30;3.70;99.90
15578;DHT22;17667;45.598;5.214;2023-04-08T03:38:18;3.70;99.90
15578;DHT22;17667;45.598;5.214;2023-04-08T03:41:07;3.70;99.90
15578;DHT22;17667;45.598;5.214;2023-04-08T03:43:55;3.70;99.90
15578;DHT22;17667;45.598;5.214;2023-04-08T03:46:42;3.70;99.90
15578;DHT22;17667;45.598;5.214;2023-04-08T03:49:30;3.60;99.90
15578;DHT22;17667;45.598;5.214;2023-04-08T03:52:18;3.50;99.90
15578;DHT22;17667;45.598;5.214;2023-04-08T03:55:05;3.40;99.90
15578;DHT22;17667;45.598;5.214;2023-04-08T03:57:54;3.40;99.90
15578;DHT22;17667;45.598;5.214;2023-04-08T04:00:42;3.30;99.90
15578;DHT22;17667;45.598;5.214;2023-04-08T04:03:30;3.20;99.90
15578;DHT22;17667;45.598;5.214;2023-04-08T04:06:17;3.20;99.90
15578;DHT22;17667;45.598;5.214;2023-04-08T04:09:05;3.20;99.90
15578;DHT22;17667;45.598;5.214;2023-04-08T04:11:53;3.20;99.90
15578;DHT22;17667;45.598;5.214;2023-04-08T04:14:42;3.10;99.90
15578;DHT22;17667;45.598;5.214;2023-04-08T04:17:30;3.10;99.90
15578;DHT22;17667;45.598;5.214;2023-04-08T04:20:17;3.20;99.90
15578;DHT22;17667;45.598;5.214;2023-04-08T04:23:05;3.20;99.90
15578;DHT22;17667;45.598;5.214;2023-04-08T04:25:53;3.20;99.90
15578;DHT22;17667;45.598;5.214;2023-04-08T04:28:41;3.10;99.90
15578;DHT22;17667;45.598;5.214;2023-04-08T04:31:30;3.10;99.90
15578;DHT22;17667;45.598;5.214;2023-04-08T04:34:17;3.00;99.90
15578;DHT22;17667;45.598;5.214;2023-04-08T04:37:05;3.00;99.90
15578;DHT22;17667;45.598;5.214;2023-04-08T04:39:53;2.90;99.90
15578;DHT22;17667;45.598;5.214;2023-04-08T04:42:40;2.90;99.90
15578;DHT22;17667;45.598;5.214;2023-04-08T04:45:28;2.90;99.90
15578;DHT22;17667;45.598;5.214;2023-04-08T04:48:17;3.00;99.90
15578;DHT22;17667;45.598;5.214;2023-04-08T04:51:05;3.00;99.90
15578;DHT22;17667;45.598;5.214;2023-04-08T04:53:52;2.90;99.90
15578;DHT22;17667;45.598;5.214;2023-04-08T04:56:40;2.90;99.90
15578;DHT22;17667;45.598;5.214;2023-04-08T04:59:28;2.90;99.90
15578;DHT22;17667;45.598;5.214;2023-04-08T05:02:15;2.90;99.90
15578;DHT22;17667;45.598;5.214;2023-04-08T05:05:05;2.80;99.90
15578;DHT22;17667;45.598;5.214;2023-04-08T05:07:53;2.90;99.90
15578;DHT22;17667;45.598;5.214;2023-04-08T05:10:40;2.90;99.90
15578;DHT22;17667;45.598;5.214;2023-04-08T05:13:28;2.90;99.90
15578;DHT22;17667;45.598;5.214;2023-04-08T05:16:16;2.80;99.90
15578;DHT22;17667;45.598;5.214;2023-04-08T05:19:03;2.80;99.90
15578;DHT22;17667;45.598;5.214;2023-04-08T05:21:52;2.90;99.90
15578;DHT22;17667;45.598;5.214;2023-04-08T05:24:40;2.90;99.90
15578;DHT22;17667;45.598;5.214;2023-04-08T05:27:28;3.00;99.90
15578;DHT22;17667;45.598;5.214;2023-04-08T05:30:16;3.00;99.90
15578;DHT22;17667;45.598;5.214;2023-04-08T05:33:03;3.00;99.90
15578;DHT22;17667;45.598;5.214;2023-04-08T05:35:51;3.00;99.90
15578;DHT22;17667;45.598;5.214;2023-04-08T05:38:40;3.10;99.90
15578;DHT22;17667;45.598;5.214;2023-04-08T05:41:28;3.10;99.90
15578;DHT22;17667;45.598;5.214;2023-04-08T05:44:16;3.10;99.90
15578;DHT22;17667;45.598;5.214;2023-04-08T05:47:04;3.10;99.90
15578;DHT22;17667;45.598;5.214;2023-04-08T05:49:51;3.20;99.90
15578;DHT22;17667;45.598;5.214;2023-04-08T05:52:41;3.20;99.90
15578;DHT22;17667;45.598;5.214;2023-04-08T05:55:31;3.30;99.90
15578;DHT22;17667;45.598;5.214;2023-04-08T05:58:18;3.30;99.90
15578;DHT22;17667;45.598;5.214;2023-04-08T06:01:06;3.40;99.90
15578;DHT22;17667;45.598;5.214;2023-04-08T06:03:54;3.50;99.90
15578;DHT22;17667;45.598;5.214;2023-04-08T06:06:42;3.60;99.90
15578;DHT22;17667;45.598;5.214;2023-04-08T06:09:29;3.60;99.90
15578;DHT22;17667;45.598;5.214;2023-04-08T06:12:18;3.80;99.90
15578;DHT22;17667;45.598;5.214;2023-04-08T06:15:07;3.90;99.90
15578;DHT22;17667;45.598;5.214;2023-04-08T06:17:55;4.10;99.90
15578;DHT22;17667;45.598;5.214;2023-04-08T06:20:42;4.10;99.90
15578;DHT22;17667;45.598;5.214;2023-04-08T06:23:31;4.30;99.90
15578;DHT22;17667;45.598;5.214;2023-04-08T06:26:19;4.50;99.90
15578;DHT22;17667;45.598;5.214;2023-04-08T06:29:08;4.70;99.90
15578;DHT22;17667;45.598;5.214;2023-04-08T06:31:55;4.90;99.90
15578;DHT22;17667;45.598;5.214;2023-04-08T06:34:44;5.10;99.90
15578;DHT22;17667;45.598;5.214;2023-04-08T06:37:31;5.30;99.90
15578;DHT22;17667;45.598;5.214;2023-04-08T06:40:19;5.60;99.90
15578;DHT22;17667;45.598;5.214;2023-04-08T06:43:07;5.90;99.90
15578;DHT22;17667;45.598;5.214;2023-04-08T06:45:59;6.00;99.90
15578;DHT22;17667;45.598;5.214;2023-04-08T06:48:47;6.10;99.90
15578;DHT22;17667;45.598;5.214;2023-04-08T06:51:35;6.30;99.90
15578;DHT22;17667;45.598;5.214;2023-04-08T06:54:23;6.50;99.90
15578;DHT22;17667;45.598;5.214;2023-04-08T06:57:11;6.50;99.90
15578;DHT22;17667;45.598;5.214;2023-04-08T06:59:58;6.60;99.90
15578;DHT22;17667;45.598;5.214;2023-04-08T07:02:47;6.80;99.90
15578;DHT22;17667;45.598;5.214;2023-04-08T07:05:35;7.00;99.90
15578;DHT22;17667;45.598;5.214;2023-04-08T07:08:23;6.90;99.90
15578;DHT22;17667;45.598;5.214;2023-04-08T07:11:11;7.20;99.90
15578;DHT22;17667;45.598;5.214;2023-04-08T07:13:59;7.40;99.90
15578;DHT22;17667;45.598;5.214;2023-04-08T07:16:46;7.50;99.90
15578;DHT22;17667;45.598;5.214;2023-04-08T07:19:36;7.60;98.70
15578;DHT22;17667;45.598;5.214;2023-04-08T07:22:23;7.70;98.10
15578;DHT22;17667;45.598;5.214;2023-04-08T07:25:11;7.90;97.40
15578;DHT22;17667;45.598;5.214;2023-04-08T07:27:59;8.10;96.60
15578;DHT22;17667;45.598;5.214;2023-04-08T07:30:46;8.50;95.50
15578;DHT22;17667;45.598;5.214;2023-04-08T07:33:34;8.70;94.60
15578;DHT22;17667;45.598;5.214;2023-04-08T07:36:23;9.00;95.10
15578;DHT22;17667;45.598;5.214;2023-04-08T07:39:10;9.30;94.30
15578;DHT22;17667;45.598;5.214;2023-04-08T07:41:58;9.30;92.70
15578;DHT22;17667;45.598;5.214;2023-04-08T07:44:46;9.00;93.10
15578;DHT22;17667;45.598;5.214;2023-04-08T07:47:34;9.30;92.90
15578;DHT22;17667;45.598;5.214;2023-04-08T07:50:22;9.80;91.80
15578;DHT22;17667;45.598;5.214;2023-04-08T07:53:11;9.80;90.50
15578;DHT22;17667;45.598;5.214;2023-04-08T07:55:59;10.40;90.90
15578;DHT22;17667;45.598;5.214;2023-04-08T07:58:49;10.70;88.40
15578;DHT22;17667;45.598;5.214;2023-04-08T08:01:38;10.70;87.20
15578;DHT22;17667;45.598;5.214;2023-04-08T08:04:26;10.40;86.20
15578;DHT22;17667;45.598;5.214;2023-04-08T08:07:13;10.90;87.70
15578;DHT22;17667;45.598;5.214;2023-04-08T08:10:03;11.20;84.30
15578;DHT22;17667;45.598;5.214;2023-04-08T08:12:51;11.50;83.30
15578;DHT22;17667;45.598;5.214;2023-04-08T08:15:38;11.70;79.30
15578;DHT22;17667;45.598;5.214;2023-04-08T08:18:26;12.30;79.20
15578;DHT22;17667;45.598;5.214;2023-04-08T08:21:14;12.40;76.40
15578;DHT22;17667;45.598;5.214;2023-04-08T08:24:01;11.90;76.90
15578;DHT22;17667;45.598;5.214;2023-04-08T08:26:50;12.60;75.70
15578;DHT22;17667;45.598;5.214;2023-04-08T08:29:38;12.80;73.50
15578;DHT22;17667;45.598;5.214;2023-04-08T08:32:26;13.10;73.40
15578;DHT22;17667;45.598;5.214;2023-04-08T08:35:13;12.70;72.20
15578;DHT22;17667;45.598;5.214;2023-04-08T08:38:01;12.90;72.30
15578;DHT22;17667;45.598;5.214;2023-04-08T08:40:53;13.80;71.10
15578;DHT22;17667;45.598;5.214;2023-04-08T08:43:42;14.00;66.40
15578;DHT22;17667;45.598;5.214;2023-04-08T08:46:30;14.00;64.60
15578;DHT22;17667;45.598;5.214;2023-04-08T08:49:18;13.60;65.20
15578;DHT22;17667;45.598;5.214;2023-04-08T08:52:06;14.20;64.70
15578;DHT22;17667;45.598;5.214;2023-04-08T08:54:58;14.40;62.70
15578;DHT22;17667;45.598;5.214;2023-04-08T08:57:49;14.90;60.10
15578;DHT22;17667;45.598;5.214;2023-04-08T09:00:40;16.60;61.30
15578;DHT22;17667;45.598;5.214;2023-04-08T09:03:33;17.40;53.30
15578;DHT22;17667;45.598;5.214;2023-04-08T09:06:20;18.20;51.90
15578;DHT22;17667;45.598;5.214;2023-04-08T09:09:08;18.50;50.10
15578;DHT22;17667;45.598;5.214;2023-04-08T09:12:02;17.60;49.40
15578;DHT22;17667;45.598;5.214;2023-04-08T09:15:02;19.10;50.50
15578;DHT22;17667;45.598;5.214;2023-04-08T09:17:52;20.20;49.50
15578;DHT22;17667;45.598;5.214;2023-04-08T09:20:51;20.90;46.30
15578;DHT22;17667;45.598;5.214;2023-04-08T09:23:40;22.90;44.80
15578;DHT22;17667;45.598;5.214;2023-04-08T09:26:28;22.40;41.30
15578;DHT22;17667;45.598;5.214;2023-04-08T09:29:15;22.40;38.80
15578;DHT22;17667;45.598;5.214;2023-04-08T09:32:10;21.50;40.50
15578;DHT22;17667;45.598;5.214;2023-04-08T09:34:59;22.00;39.90
15578;DHT22;17667;45.598;5.214;2023-04-08T09:37:47;22.80;37.90
15578;DHT22;17667;45.598;5.214;2023-04-08T09:40:36;23.30;37.30
15578;DHT22;17667;45.598;5.214;2023-04-08T09:43:25;24.20;35.70
15578;DHT22;17667;45.598;5.214;2023-04-08T09:46:14;25.90;36.10
15578;DHT22;17667;45.598;5.214;2023-04-08T09:49:05;27.60;33.80
15578;DHT22;17667;45.598;5.214;2023-04-08T09:52:02;29.50;33.20
15578;DHT22;17667;45.598;5.214;2023-04-08T09:54:56;30.30;31.50
15578;DHT22;17667;45.598;5.214;2023-04-08T09:57:54;28.80;31.70
15578;DHT22;17667;45.598;5.214;2023-04-08T10:00:46;26.40;35.30
15578;DHT22;17667;45.598;5.214;2023-04-08T10:03:38;28.90;33.40
15578;DHT22;17667;45.598;5.214;2023-04-08T10:06:27;29.20;31.10
15578;DHT22;17667;45.598;5.214;2023-04-08T10:09:18;26.90;32.90
15578;DHT22;17667;45.598;5.214;2023-04-08T10:12:06;26.80;34.50
15578;DHT22;17667;45.598;5.214;2023-04-08T10:15:22;29.40;31.50
15578;DHT22;17667;45.598;5.214;2023-04-08T10:18:29;30.70;30.10
15578;DHT22;17667;45.598;5.214;2023-04-08T10:21:37;32.10;29.20
15578;DHT22;17667;45.598;5.214;2023-04-08T10:24:26;29.60;29.40
15578;DHT22;17667;45.598;5.214;2023-04-08T10:27:37;30.90;30.00
15578;DHT22;17667;45.598;5.214;2023-04-08T10:30:40;28.90;29.80
15578;DHT22;17667;45.598;5.214;2023-04-08T10:33:31;29.30;32.50
15578;DHT22;17667;45.598;5.214;2023-04-08T10:36:20;31.70;29.60
15578;DHT22;17667;45.598;5.214;2023-04-08T10:39:07;29.90;30.00
15578;DHT22;17667;45.598;5.214;2023-04-08T10:41:57;29.80;29.80
15578;DHT22;17667;45.598;5.214;2023-04-08T10:44:47;29.40;29.60
15578;DHT22;17667;45.598;5.214;2023-04-08T10:47:36;28.40;30.00
15578;DHT22;17667;45.598;5.214;2023-04-08T10:50:24;31.20;28.30
15578;DHT22;17667;45.598;5.214;2023-04-08T10:53:12;32.90;28.80
15578;DHT22;17667;45.598;5.214;2023-04-08T10:56:03;32.50;27.40
15578;DHT22;17667;45.598;5.214;2023-04-08T10:58:54;33.20;28.00
15578;DHT22;17667;45.598;5.214;2023-04-08T11:01:43;32.00;26.50
15578;DHT22;17667;45.598;5.214;2023-04-08T11:04:31;33.40;26.40
15578;DHT22;17667;45.598;5.214;2023-04-08T11:07:19;34.20;26.00
15578;DHT22;17667;45.598;5.214;2023-04-08T11:10:08;35.30;25.30
15578;DHT22;17667;45.598;5.214;2023-04-08T11:12:56;35.70;25.10
15578;DHT22;17667;45.598;5.214;2023-04-08T11:15:45;34.50;27.00
15578;DHT22;17667;45.598;5.214;2023-04-08T11:18:33;35.70;25.70
15578;DHT22;17667;45.598;5.214;2023-04-08T11:21:22;37.10;24.40
15578;DHT22;17667;45.598;5.214;2023-04-08T11:24:11;36.30;23.90
15578;DHT22;17667;45.598;5.214;2023-04-08T11:26:59;33.20;24.90
15578;DHT22;17667;45.598;5.214;2023-04-08T11:29:48;32.00;26.10
15578;DHT22;17667;45.598;5.214;2023-04-08T11:32:38;33.60;26.50
15578;DHT22;17667;45.598;5.214;2023-04-08T11:35:27;31.40;27.20
15578;DHT22;17667;45.598;5.214;2023-04-08T11:38:16;30.10;28.00
15578;DHT22;17667;45.598;5.214;2023-04-08T11:41:03;30.70;28.10
15578;DHT22;17667;45.598;5.214;2023-04-08T11:43:55;29.90;27.80
15578;DHT22;17667;45.598;5.214;2023-04-08T11:46:51;29.90;28.70
15578;DHT22;17667;45.598;5.214;2023-04-08T11:49:45;31.30;28.30
15578;DHT22;17667;45.598;5.214;2023-04-08T11:52:43;33.30;27.80
15578;DHT22;17667;45.598;5.214;2023-04-08T11:55:32;33.60;26.60
15578;DHT22;17667;45.598;5.214;2023-04-08T11:58:20;33.10;26.30
15578;DHT22;17667;45.598;5.214;2023-04-08T12:01:07;35.00;27.60
15578;DHT22;17667;45.598;5.214;2023-04-08T12:03:57;35.80;25.70
15578;DHT22;17667;45.598;5.214;2023-04-08T12:06:46;36.70;24.80
15578;DHT22;17667;45.598;5.214;2023-04-08T12:09:33;34.10;27.00
15578;DHT22;17667;45.598;5.214;2023-04-08T12:12:21;33.50;26.50
15578;DHT22;17667;45.598;5.214;2023-04-08T12:15:09;33.20;28.20
15578;DHT22;17667;45.598;5.214;2023-04-08T12:17:57;33.80;26.90
15578;DHT22;17667;45.598;5.214;2023-04-08T12:20:45;34.50;26.20
15578;DHT22;17667;45.598;5.214;2023-04-08T12:23:34;36.30;25.80
15578;DHT22;17667;45.598;5.214;2023-04-08T12:26:21;36.90;23.80
15578;DHT22;17667;45.598;5.214;2023-04-08T12:29:09;36.60;24.30
15578;DHT22;17667;45.598;5.214;2023-04-08T12:31:57;36.50;25.30
15578;DHT22;17667;45.598;5.214;2023-04-08T12:34:45;35.80;24.90
15578;DHT22;17667;45.598;5.214;2023-04-08T12:37:32;35.90;24.60
15578;DHT22;17667;45.598;5.214;2023-04-08T12:40:21;37.50;25.50
15578;DHT22;17667;45.598;5.214;2023-04-08T12:43:09;36.00;25.20
15578;DHT22;17667;45.598;5.214;2023-04-08T12:45:57;36.70;24.80
15578;DHT22;17667;45.598;5.214;2023-04-08T12:48:44;35.70;24.60
15578;DHT22;17667;45.598;5.214;2023-04-08T12:51:33;36.40;25.40
15578;DHT22;17667;45.598;5.214;2023-04-08T12:54:20;35.80;24.40
15578;DHT22;17667;45.598;5.214;2023-04-08T12:57:10;35.10;25.10
15578;DHT22;17667;45.598;5.214;2023-04-08T12:59:57;34.70;25.90
15578;DHT22;17667;45.598;5.214;2023-04-08T13:02:45;34.40;27.10
15578;DHT22;17667;45.598;5.214;2023-04-08T13:05:33;36.90;26.60
15578;DHT22;17667;45.598;5.214;2023-04-08T13:08:27;37.30;26.00
15578;DHT22;17667;45.598;5.214;2023-04-08T13:11:15;37.30;24.70
15578;DHT22;17667;45.598;5.214;2023-04-08T13:14:04;34.30;26.20
15578;DHT22;17667;45.598;5.214;2023-04-08T13:16:52;33.70;28.60
15578;DHT22;17667;45.598;5.214;2023-04-08T13:19:40;35.90;25.70
15578;DHT22;17667;45.598;5.214;2023-04-08T13:22:28;35.20;26.10
15578;DHT22;17667;45.598;5.214;2023-04-08T13:25:15;34.30;27.00
15578;DHT22;17667;45.598;5.214;2023-04-08T13:28:03;32.20;28.80
15578;DHT22;17667;45.598;5.214;2023-04-08T13:30:52;33.20;27.30
15578;DHT22;17667;45.598;5.214;2023-04-08T13:33:40;33.60;27.60
15578;DHT22;17667;45.598;5.214;2023-04-08T13:36:28;31.50;26.60
15578;DHT22;17667;45.598;5.214;2023-04-08T13:39:16;31.40;28.00
15578;DHT22;17667;45.598;5.214;2023-04-08T13:42:04;30.70;28.80
15578;DHT22;17667;45.598;5.214;2023-04-08T13:44:52;28.10;33.80
15578;DHT22;17667;45.598;5.214;2023-04-08T13:47:41;29.70;30.20
15578;DHT22;17667;45.598;5.214;2023-04-08T13:50:28;32.20;28.30
15578;DHT22;17667;45.598;5.214;2023-04-08T13:53:16;33.80;27.20
15578;DHT22;17667;45.598;5.214;2023-04-08T13:56:04;35.80;25.90
15578;DHT22;17667;45.598;5.214;2023-04-08T13:58:52;35.30;26.80
15578;DHT22;17667;45.598;5.214;2023-04-08T14:01:42;34.70;27.80
15578;DHT22;17667;45.598;5.214;2023-04-08T14:04:31;32.90;28.00
15578;DHT22;17667;45.598;5.214;2023-04-08T14:07:18;33.60;28.10
15578;DHT22;17667;45.598;5.214;2023-04-08T14:10:07;31.90;28.90
15578;DHT22;17667;45.598;5.214;2023-04-08T14:12:55;32.80;28.20
15578;DHT22;17667;45.598;5.214;2023-04-08T14:15:43;33.20;27.20
15578;DHT22;17667;45.598;5.214;2023-04-08T14:18:32;33.50;27.50
15578;DHT22;17667;45.598;5.214;2023-04-08T14:21:20;32.50;27.50
15578;DHT22;17667;45.598;5.214;2023-04-08T14:24:08;34.20;28.40
15578;DHT22;17667;45.598;5.214;2023-04-08T14:26:56;34.60;27.60
15578;DHT22;17667;45.598;5.214;2023-04-08T14:29:44;34.30;27.10
15578;DHT22;17667;45.598;5.214;2023-04-08T14:32:32;34.30;28.60
15578;DHT22;17667;45.598;5.214;2023-04-08T14:35:22;35.00;27.60
15578;DHT22;17667;45.598;5.214;2023-04-08T14:38:11;32.70;27.50
15578;DHT22;17667;45.598;5.214;2023-04-08T14:40:59;31.00;27.90
15578;DHT22;17667;45.598;5.214;2023-04-08T14:43:47;31.40;28.30
15578;DHT22;17667;45.598;5.214;2023-04-08T14:46:35;32.70;27.60
15578;DHT22;17667;45.598;5.214;2023-04-08T14:49:22;32.40;26.00
15578;DHT22;17667;45.598;5.214;2023-04-08T14:52:10;29.70;29.00
15578;DHT22;17667;45.598;5.214;2023-04-08T14:54:59;31.60;28.40
15578;DHT22;17667;45.598;5.214;2023-04-08T14:57:48;31.90;27.20
15578;DHT22;17667;45.598;5.214;2023-04-08T15:00:35;29.80;27.40
15578;DHT22;17667;45.598;5.214;2023-04-08T15:03:24;29.40;28.20
15578;DHT22;17667;45.598;5.214;2023-04-08T15:06:15;31.40;28.70
15578;DHT22;17667;45.598;5.214;2023-04-08T15:09:04;32.70;26.60
15578;DHT22;17667;45.598;5.214;2023-04-08T15:11:52;32.20;27.50
15578;DHT22;17667;45.598;5.214;2023-04-08T15:14:40;31.90;27.00
15578;DHT22;17667;45.598;5.214;2023-04-08T15:17:28;31.20;27.10
15578;DHT22;17667;45.598;5.214;2023-04-08T15:20:16;29.70;29.00
15578;DHT22;17667;45.598;5.214;2023-04-08T15:23:05;30.50;28.00
15578;DHT22;17667;45.598;5.214;2023-04-08T15:25:54;29.00;30.00
15578;DHT22;17667;45.598;5.214;2023-04-08T15:28:43;29.20;30.20
15578;DHT22;17667;45.598;5.214;2023-04-08T15:31:30;29.60;28.90
15578;DHT22;17667;45.598;5.214;2023-04-08T15:34:20;31.00;27.30
15578;DHT22;17667;45.598;5.214;2023-04-08T15:37:08;29.40;27.80
15578;DHT22;17667;45.598;5.214;2023-04-08T15:39:55;29.60;28.80
15578;DHT22;17667;45.598;5.214;2023-04-08T15:42:43;29.30;28.40
15578;DHT22;17667;45.598;5.214;2023-04-08T15:45:32;27.90;29.70
15578;DHT22;17667;45.598;5.214;2023-04-08T15:48:20;28.30;30.30
15578;DHT22;17667;45.598;5.214;2023-04-08T15:51:07;28.90;29.60
15578;DHT22;17667;45.598;5.214;2023-04-08T15:53:56;28.30;29.30
15578;DHT22;17667;45.598;5.214;2023-04-08T15:56:44;27.60;29.80
15578;DHT22;17667;45.598;5.214;2023-04-08T15:59:31;26.90;31.70
15578;DHT22;17667;45.598;5.214;2023-04-08T16:02:20;26.70;30.30
15578;DHT22;17667;45.598;5.214;2023-04-08T16:05:08;27.60;31.10
15578;DHT22;17667;45.598;5.214;2023-04-08T16:07:57;27.70;30.50
15578;DHT22;17667;45.598;5.214;2023-04-08T16:10:45;28.00;29.70
15578;DHT22;17667;45.598;5.214;2023-04-08T16:13:33;26.30;31.50
15578;DHT22;17667;45.598;5.214;2023-04-08T16:16:20;26.20;32.00
15578;DHT22;17667;45.598;5.214;2023-04-08T16:19:09;26.80;30.20
15578;DHT22;17667;45.598;5.214;2023-04-08T16:21:57;26.60;31.30
15578;DHT22;17667;45.598;5.214;2023-04-08T16:24:45;26.70;30.90
15578;DHT22;17667;45.598;5.214;2023-04-08T16:27:33;26.10;30.40
15578;DHT22;17667;45.598;5.214;2023-04-08T16:30:22;26.70;30.20
15578;DHT22;17667;45.598;5.214;2023-04-08T16:33:09;25.40;30.90
15578;DHT22;17667;45.598;5.214;2023-04-08T16:35:59;22.50;37.50
15578;DHT22;17667;45.598;5.214;2023-04-08T16:38:49;20.40;41.50
15578;DHT22;17667;45.598;5.214;2023-04-08T16:41:39;18.90;45.70
15578;DHT22;17667;45.598;5.214;2023-04-08T16:44:26;17.90;49.10
15578;DHT22;17667;45.598;5.214;2023-04-08T16:47:14;17.60;49.20
15578;DHT22;17667;45.598;5.214;2023-04-08T16:50:02;17.90;48.80
15578;DHT22;17667;45.598;5.214;2023-04-08T16:52:51;19.80;46.10
15578;DHT22;17667;45.598;5.214;2023-04-08T16:55:39;21.40;41.70
15578;DHT22;17667;45.598;5.214;2023-04-08T16:58:27;22.50;38.50
15578;DHT22;17667;45.598;5.214;2023-04-08T17:01:14;23.10;37.60
15578;DHT22;17667;45.598;5.214;2023-04-08T17:04:02;22.80;38.30
15578;DHT22;17667;45.598;5.214;2023-04-08T17:06:50;22.50;38.30
15578;DHT22;17667;45.598;5.214;2023-04-08T17:09:39;22.10;38.80
15578;DHT22;17667;45.598;5.214;2023-04-08T17:12:27;21.10;41.20
15578;DHT22;17667;45.598;5.214;2023-04-08T17:15:14;19.90;43.60
15578;DHT22;17667;45.598;5.214;2023-04-08T17:18:02;18.60;46.30
15578;DHT22;17667;45.598;5.214;2023-04-08T17:20:50;17.80;48.80
15578;DHT22;17667;45.598;5.214;2023-04-08T17:23:37;17.30;50.40
15578;DHT22;17667;45.598;5.214;2023-04-08T17:26:26;16.80;49.40
15578;DHT22;17667;45.598;5.214;2023-04-08T17:29:14;16.50;49.70
15578;DHT22;17667;45.598;5.214;2023-04-08T17:32:02;16.30;50.60
15578;DHT22;17667;45.598;5.214;2023-04-08T17:34:50;16.10;51.40
15578;DHT22;17667;45.598;5.214;2023-04-08T17:37:37;16.10;51.40
15578;DHT22;17667;45.598;5.214;2023-04-08T17:40:25;15.80;51.70
15578;DHT22;17667;45.598;5.214;2023-04-08T17:43:14;15.70;53.00
15578;DHT22;17667;45.598;5.214;2023-04-08T17:46:01;15.50;55.00
15578;DHT22;17667;45.598;5.214;2023-04-08T17:48:49;15.40;55.40
15578;DHT22;17667;45.598;5.214;2023-04-08T17:51:36;15.30;56.90
15578;DHT22;17667;45.598;5.214;2023-04-08T17:54:24;15.10;57.50